createdAt,value
2022-12-31T00:00:05.236Z,0.80
2022-12-31T00:02:31.877Z,0.88
2022-12-31T00:04:58.355Z,0.63
2022-12-31T00:07:25.134Z,0.93
2022-12-31T00:09:51.469Z,0.95
2022-12-31T00:12:17.810Z,0.73
2022-12-31T00:14:44.608Z,0.95
2022-12-31T00:17:10.986Z,0.68
2022-12-31T00:19:37.407Z,1.10
2022-12-31T00:22:04.265Z,0.75
2022-12-31T00:24:31.086Z,0.70
2022-12-31T00:26:57.572Z,0.90
2022-12-31T00:29:24.545Z,0.60
2022-12-31T00:31:50.887Z,0.73
2022-12-31T00:34:17.248Z,0.68
2022-12-31T00:36:46.227Z,0.50
2022-12-31T00:39:13.158Z,0.68
2022-12-31T00:41:40.112Z,0.80
2022-12-31T00:44:06.565Z,0.77
2022-12-31T00:46:33.089Z,0.80
2022-12-31T00:49:00.087Z,0.70
2022-12-31T00:51:27.496Z,0.40
2022-12-31T00:53:55.561Z,0.88
2022-12-31T00:56:26.037Z,0.60
2022-12-31T00:58:52.708Z,0.47
2022-12-31T01:01:20.759Z,0.50
2022-12-31T01:03:49.400Z,0.70
2022-12-31T01:06:17.023Z,0.50
2022-12-31T01:08:43.871Z,0.75
2022-12-31T01:11:24.583Z,0.75
2022-12-31T01:13:54.442Z,0.50
2022-12-31T01:16:27.031Z,0.55
2022-12-31T01:18:53.845Z,0.68
2022-12-31T01:21:20.887Z,0.63
2022-12-31T01:23:48.084Z,0.90
2022-12-31T01:26:16.609Z,0.55
2022-12-31T01:28:42.961Z,0.50
2022-12-31T01:31:15.668Z,0.73
2022-12-31T01:33:42.899Z,0.50
2022-12-31T01:36:25.028Z,0.38
2022-12-31T01:38:53.096Z,0.75
2022-12-31T01:41:23.594Z,0.63
2022-12-31T01:43:57.355Z,0.55
2022-12-31T01:46:27.191Z,0.90
2022-12-31T01:48:57.945Z,0.60
2022-12-31T01:51:27.820Z,0.73
2022-12-31T01:53:54.633Z,0.57
2022-12-31T01:56:22.746Z,0.73
2022-12-31T01:58:52.399Z,0.70
2022-12-31T02:01:26.370Z,0.50
2022-12-31T02:03:54.180Z,1.08
2022-12-31T02:06:23.965Z,0.82
2022-12-31T02:08:51.398Z,0.75
2022-12-31T02:11:30.624Z,0.80
2022-12-31T02:14:03.725Z,0.68
2022-12-31T02:16:47.513Z,0.93
2022-12-31T02:19:51.669Z,0.80
2022-12-31T02:22:40.112Z,0.73
2022-12-31T02:25:40.701Z,0.90
2022-12-31T02:28:25.369Z,0.60
2022-12-31T02:31:00.931Z,0.75
2022-12-31T02:33:36.846Z,0.70
2022-12-31T02:36:10.703Z,0.75
2022-12-31T02:38:42.011Z,0.75
2022-12-31T02:41:36.342Z,0.38
2022-12-31T02:44:21.089Z,0.50
2022-12-31T02:47:00.989Z,0.50
2022-12-31T02:49:45.790Z,0.52
2022-12-31T02:52:33.663Z,0.70
2022-12-31T02:55:18.092Z,0.70
2022-12-31T02:58:43.520Z,0.30
2022-12-31T03:01:29.223Z,0.63
2022-12-31T03:04:15.704Z,0.90
2022-12-31T03:06:43.133Z,0.60
2022-12-31T03:09:15.176Z,1.00
2022-12-31T03:12:00.668Z,0.75
2022-12-31T03:14:27.036Z,0.47
2022-12-31T03:16:53.476Z,0.60
2022-12-31T03:19:38.869Z,0.60
2022-12-31T03:22:23.592Z,0.75
2022-12-31T03:25:08.712Z,0.90
2022-12-31T03:27:35.035Z,0.40
2022-12-31T03:30:01.448Z,0.70
2022-12-31T03:32:28.168Z,0.95
2022-12-31T03:34:55.786Z,0.80
2022-12-31T03:37:22.124Z,0.90
2022-12-31T03:39:48.672Z,0.77
2022-12-31T03:42:15.035Z,0.73
2022-12-31T03:44:41.355Z,0.90
2022-12-31T03:47:08.218Z,0.90
2022-12-31T03:49:34.546Z,0.88
2022-12-31T03:52:02.911Z,0.95
2022-12-31T03:54:29.828Z,0.52
2022-12-31T03:57:00.100Z,0.50
2022-12-31T03:59:26.846Z,0.80
2022-12-31T04:01:53.573Z,0.68
2022-12-31T04:04:20.114Z,0.80
2022-12-31T04:06:46.909Z,0.68
2022-12-31T04:09:13.318Z,0.68
2022-12-31T04:11:39.657Z,0.80
2022-12-31T04:14:06.433Z,0.85
2022-12-31T04:16:32.997Z,0.73
2022-12-31T04:18:59.768Z,0.60
2022-12-31T04:21:31.468Z,1.02
2022-12-31T04:24:02.100Z,0.70
2022-12-31T04:26:29.241Z,0.57
2022-12-31T04:28:55.692Z,0.60
2022-12-31T04:31:22.682Z,0.80
2022-12-31T04:33:49.034Z,0.85
2022-12-31T04:36:15.418Z,0.82
2022-12-31T04:38:42.301Z,0.70
2022-12-31T04:41:17.599Z,1.05
2022-12-31T04:43:48.088Z,0.82
2022-12-31T04:46:14.899Z,1.15
2022-12-31T04:48:41.735Z,0.98
2022-12-31T04:51:08.675Z,0.93
2022-12-31T04:53:35.087Z,0.80
2022-12-31T04:56:01.607Z,1.00
2022-12-31T04:58:28.611Z,0.73
2022-12-31T05:00:56.230Z,0.73
2022-12-31T05:03:24.882Z,1.08
2022-12-31T05:05:51.821Z,0.88
2022-12-31T05:08:18.868Z,1.38
2022-12-31T05:10:48.036Z,1.17
2022-12-31T05:13:15.392Z,0.90
2022-12-31T05:15:42.745Z,1.20
2022-12-31T05:18:09.252Z,1.20
2022-12-31T05:20:36.125Z,1.00
2022-12-31T05:23:02.516Z,0.75
2022-12-31T05:25:28.946Z,0.93
2022-12-31T05:27:55.670Z,0.98
2022-12-31T05:30:23.707Z,0.70
2022-12-31T05:32:50.102Z,0.65
2022-12-31T05:35:16.987Z,0.82
2022-12-31T05:37:43.936Z,0.70
2022-12-31T05:40:11.133Z,0.40
2022-12-31T05:42:38.156Z,0.73
2022-12-31T05:45:05.589Z,0.88
2022-12-31T05:47:32.288Z,0.40
2022-12-31T05:49:59.119Z,0.90
2022-12-31T05:52:25.459Z,0.70
2022-12-31T05:54:51.809Z,0.50
2022-12-31T05:57:18.406Z,0.77
2022-12-31T05:59:44.754Z,0.50
2022-12-31T06:02:11.108Z,0.70
2022-12-31T06:04:37.893Z,0.40
2022-12-31T06:07:04.192Z,0.50
2022-12-31T06:09:30.549Z,0.65
2022-12-31T06:11:57.460Z,0.75
2022-12-31T06:14:23.882Z,0.73
2022-12-31T06:16:50.194Z,0.70
2022-12-31T06:19:16.955Z,0.73
2022-12-31T06:21:43.316Z,0.82
2022-12-31T06:24:09.628Z,0.73
2022-12-31T06:26:37.252Z,1.00
2022-12-31T06:29:05.048Z,0.60
2022-12-31T06:31:31.500Z,0.70
2022-12-31T06:33:58.225Z,0.63
2022-12-31T06:36:24.776Z,0.70
2022-12-31T06:38:51.340Z,0.68
2022-12-31T06:41:18.911Z,0.60
2022-12-31T06:43:45.558Z,0.85
2022-12-31T06:46:14.704Z,0.88
2022-12-31T06:48:43.408Z,0.60
2022-12-31T06:51:17.456Z,0.82
2022-12-31T06:53:46.088Z,0.90
2022-12-31T06:56:31.360Z,0.60
2022-12-31T06:59:01.244Z,1.00
2022-12-31T07:01:36.383Z,0.90
2022-12-31T07:04:21.707Z,1.75
2022-12-31T07:10:05.381Z,1.60
2022-12-31T07:12:50.383Z,1.73
2022-12-31T07:15:36.841Z,2.20
2022-12-31T07:18:07.530Z,2.40
2022-12-31T07:20:34.256Z,3.22
2022-12-31T07:23:01.148Z,2.35
2022-12-31T07:25:27.908Z,3.45
2022-12-31T07:28:14.659Z,3.65
2022-12-31T07:31:00.462Z,2.25
2022-12-31T07:33:57.045Z,2.08
2022-12-31T07:36:42.824Z,1.45
2022-12-31T07:39:12.065Z,1.63
2022-12-31T07:41:54.364Z,1.73
2022-12-31T07:44:32.913Z,1.80
2022-12-31T07:47:01.818Z,1.40
2022-12-31T07:49:30.461Z,1.00
2022-12-31T07:51:57.800Z,1.13
2022-12-31T07:54:24.272Z,0.95
2022-12-31T07:56:51.634Z,0.98
2022-12-31T07:59:30.528Z,1.13
2022-12-31T08:02:06.574Z,0.98
2022-12-31T08:04:36.229Z,0.77
2022-12-31T08:07:34.140Z,1.00
2022-12-31T08:10:17.784Z,11.27
2022-12-31T08:12:47.092Z,7.60
2022-12-31T08:15:16.293Z,19.83
2022-12-31T08:17:43.175Z,4.30
2022-12-31T08:20:15.040Z,6.35
2022-12-31T08:22:56.454Z,14.63
2022-12-31T08:25:30.536Z,12.00
2022-12-31T08:28:28.422Z,8.63
2022-12-31T08:31:02.001Z,2.50
2022-12-31T08:34:06.247Z,1.98
2022-12-31T08:36:57.351Z,4.13
2022-12-31T08:39:38.424Z,2.60
2022-12-31T08:42:23.790Z,1.60
2022-12-31T08:45:03.134Z,1.45
2022-12-31T08:47:46.412Z,2.03
2022-12-31T08:50:18.128Z,1.05
2022-12-31T08:52:45.328Z,1.45
2022-12-31T08:55:17.414Z,1.88
2022-12-31T08:58:05.170Z,1.70
2022-12-31T09:00:33.599Z,1.50
2022-12-31T09:03:18.470Z,1.52
2022-12-31T09:06:11.315Z,2.15
2022-12-31T09:09:06.208Z,2.10
2022-12-31T09:12:04.724Z,2.72
2022-12-31T09:14:49.362Z,1.90
2022-12-31T09:17:45.587Z,2.47
2022-12-31T09:20:36.365Z,4.68
2022-12-31T09:23:09.064Z,1.85
2022-12-31T09:25:42.182Z,3.80
2022-12-31T09:28:17.764Z,2.70
2022-12-31T09:31:08.629Z,9.20
2022-12-31T09:34:02.603Z,4.70
2022-12-31T09:36:39.235Z,2.60
2022-12-31T09:39:33.143Z,4.80
2022-12-31T09:42:25.251Z,3.75
2022-12-31T09:45:03.917Z,3.80
2022-12-31T09:47:52.255Z,3.47
2022-12-31T09:50:25.289Z,5.18
2022-12-31T09:52:51.580Z,3.25
2022-12-31T09:55:48.942Z,10.23
2022-12-31T09:58:24.683Z,14.50
2022-12-31T10:01:14.155Z,16.55
2022-12-31T10:04:09.620Z,36.42
2022-12-31T10:09:20.756Z,3.28
2022-12-31T10:12:19.367Z,2.10
2022-12-31T10:15:23.318Z,2.42
2022-12-31T10:18:21.192Z,2.25
2022-12-31T10:20:50.796Z,3.10
2022-12-31T10:23:33.037Z,3.08
2022-12-31T10:26:25.004Z,2.80
2022-12-31T10:28:59.939Z,1.73
2022-12-31T10:31:41.341Z,2.08
2022-12-31T10:34:43.089Z,1.77
2022-12-31T10:37:13.913Z,1.40
2022-12-31T10:40:01.010Z,2.97
2022-12-31T10:43:14.158Z,4.65
2022-12-31T10:45:49.967Z,4.22
2022-12-31T10:48:40.681Z,3.10
2022-12-31T10:51:44.420Z,2.60
2022-12-31T10:54:32.806Z,3.42
2022-12-31T10:57:25.448Z,1.75
2022-12-31T11:00:00.921Z,1.55
2022-12-31T11:02:48.206Z,1.15
2022-12-31T11:05:59.096Z,1.17
2022-12-31T11:09:00.962Z,1.17
2022-12-31T11:11:51.636Z,1.60
2022-12-31T11:14:30.485Z,2.58
2022-12-31T11:17:18.637Z,2.60
2022-12-31T11:20:10.994Z,1.85
2022-12-31T11:22:51.143Z,1.77
2022-12-31T11:25:34.442Z,1.55
2022-12-31T11:28:22.447Z,2.95
2022-12-31T11:31:07.816Z,1.63
2022-12-31T11:33:51.009Z,1.75
2022-12-31T11:36:32.637Z,1.42
2022-12-31T11:39:15.474Z,1.60
2022-12-31T11:42:01.659Z,1.25
2022-12-31T11:44:55.816Z,13.82
2022-12-31T11:48:27.950Z,1.40
2022-12-31T11:50:49.893Z,1.27
2022-12-31T11:53:57.904Z,0.95
2022-12-31T11:56:28.304Z,0.98
2022-12-31T11:58:56.166Z,1.08
2022-12-31T12:02:10.407Z,1.40
2022-12-31T12:04:36.751Z,1.40
2022-12-31T12:07:03.101Z,0.80
2022-12-31T12:09:32.441Z,1.10
2022-12-31T12:12:05.077Z,1.40
2022-12-31T12:14:40.305Z,1.52
2022-12-31T12:17:09.925Z,3.03
2022-12-31T12:19:46.280Z,1.90
2022-12-31T12:22:21.130Z,1.08
2022-12-31T12:24:56.998Z,0.88
2022-12-31T12:27:28.650Z,0.82
2022-12-31T12:29:55.010Z,0.98
2022-12-31T12:32:27.242Z,0.68
2022-12-31T12:34:53.781Z,0.80
2022-12-31T12:37:35.092Z,1.20
2022-12-31T12:40:05.115Z,1.33
2022-12-31T12:42:32.042Z,1.23
2022-12-31T12:45:20.672Z,1.33
2022-12-31T12:47:51.034Z,1.10
2022-12-31T12:50:22.043Z,1.40
2022-12-31T12:53:12.432Z,1.33
2022-12-31T12:55:45.035Z,1.30
2022-12-31T12:58:36.477Z,1.25
2022-12-31T13:01:26.369Z,1.17
2022-12-31T13:04:33.850Z,0.80
2022-12-31T13:07:26.241Z,0.95
2022-12-31T13:10:06.919Z,1.05
2022-12-31T13:13:22.151Z,1.00
2022-12-31T13:16:14.249Z,0.98
2022-12-31T13:19:05.313Z,1.10
2022-12-31T13:21:41.915Z,4.00
2022-12-31T13:24:31.385Z,57.75
2022-12-31T13:27:08.518Z,6.60
2022-12-31T13:29:36.140Z,9.10
2022-12-31T13:32:05.602Z,2.13
2022-12-31T13:34:38.058Z,4.82
2022-12-31T13:37:27.188Z,6.80
2022-12-31T13:40:01.881Z,5.90
2022-12-31T13:45:25.588Z,4.97
2022-12-31T13:48:06.966Z,4.13
2022-12-31T13:50:43.333Z,2.85
2022-12-31T13:53:27.570Z,3.17
2022-12-31T13:56:06.240Z,2.72
2022-12-31T13:58:45.419Z,2.53
2022-12-31T14:01:32.061Z,2.97
2022-12-31T14:04:04.636Z,1.90
2022-12-31T14:06:47.258Z,4.00
2022-12-31T14:09:21.898Z,4.10
2022-12-31T14:14:48.800Z,7.22
2022-12-31T14:17:39.593Z,4.18
2022-12-31T14:20:44.524Z,2.15
2022-12-31T14:23:17.074Z,2.60
2022-12-31T14:26:27.767Z,3.47
2022-12-31T14:29:06.716Z,5.20
2022-12-31T14:31:51.717Z,4.75
2022-12-31T14:34:47.768Z,6.68
2022-12-31T14:37:32.840Z,4.95
2022-12-31T14:43:00.813Z,11.00
2022-12-31T14:45:56.070Z,9.52
2022-12-31T14:48:29.186Z,9.45
2022-12-31T14:50:59.098Z,6.63
2022-12-31T14:53:27.345Z,6.50
2022-12-31T14:56:02.884Z,5.90
2022-12-31T14:58:42.394Z,9.32
2022-12-31T15:01:15.466Z,5.20
2022-12-31T15:03:45.723Z,4.90
2022-12-31T15:06:12.528Z,5.13
2022-12-31T15:09:02.455Z,6.45
2022-12-31T15:11:58.759Z,6.35
2022-12-31T15:14:38.093Z,6.18
2022-12-31T15:17:13.955Z,14.43
2022-12-31T15:19:58.968Z,9.00
2022-12-31T15:22:34.338Z,12.65
2022-12-31T15:25:01.578Z,7.60
2022-12-31T15:27:35.788Z,6.85
2022-12-31T15:30:04.676Z,7.70
2022-12-31T15:32:41.330Z,11.18
2022-12-31T15:35:23.381Z,20.30
2022-12-31T15:38:16.872Z,11.02
2022-12-31T15:40:46.264Z,21.77
2022-12-31T15:43:24.902Z,16.73
2022-12-31T15:45:54.326Z,8.00
2022-12-31T15:49:01.990Z,3.65
2022-12-31T15:51:37.342Z,16.05
2022-12-31T15:54:05.165Z,10.10
2022-12-31T15:56:34.653Z,13.18
2022-12-31T15:59:05.068Z,8.18
2022-12-31T16:01:36.588Z,7.05
2022-12-31T16:04:14.964Z,7.43
2022-12-31T16:06:44.929Z,7.30
2022-12-31T16:09:22.543Z,6.03
2022-12-31T16:11:50.005Z,8.23
2022-12-31T16:14:34.629Z,7.07
2022-12-31T16:17:01.695Z,6.60
2022-12-31T16:19:34.951Z,6.25
2022-12-31T16:22:08.179Z,5.38
2022-12-31T16:24:49.012Z,4.97
2022-12-31T16:27:22.838Z,5.75
2022-12-31T16:29:57.590Z,4.68
2022-12-31T16:34:50.199Z,4.70
2022-12-31T16:37:21.819Z,5.03
2022-12-31T16:39:56.955Z,4.07
2022-12-31T16:42:25.161Z,5.05
2022-12-31T16:44:53.703Z,5.10
2022-12-31T16:47:27.587Z,4.22
2022-12-31T16:50:05.308Z,4.37
2022-12-31T16:52:40.909Z,4.18
2022-12-31T16:55:10.172Z,4.47
2022-12-31T16:57:37.153Z,3.55
2022-12-31T17:00:07.341Z,2.30
2022-12-31T17:02:39.187Z,2.30
2022-12-31T17:05:19.387Z,2.97
2022-12-31T17:07:45.716Z,2.63
2022-12-31T17:10:19.360Z,2.30
2022-12-31T17:13:27.391Z,2.50
2022-12-31T17:15:43.316Z,2.55
2022-12-31T17:18:20.491Z,2.05
2022-12-31T17:20:50.160Z,2.40
2022-12-31T17:23:28.967Z,2.90
2022-12-31T17:26:09.711Z,2.65
2022-12-31T17:28:44.865Z,3.42
2022-12-31T17:31:37.830Z,2.70
2022-12-31T17:34:12.102Z,2.72
2022-12-31T17:36:40.624Z,3.03
2022-12-31T17:39:22.855Z,3.67
2022-12-31T17:41:51.512Z,2.75
2022-12-31T17:44:24.224Z,2.55
2022-12-31T17:46:51.271Z,2.67
2022-12-31T17:49:21.684Z,2.70
2022-12-31T17:51:48.420Z,2.72
2022-12-31T17:54:16.127Z,3.67
2022-12-31T17:56:44.036Z,3.42
2022-12-31T17:59:16.566Z,3.50
2022-12-31T18:01:43.138Z,3.45
2022-12-31T18:04:14.539Z,3.92
2022-12-31T18:06:41.838Z,3.42
2022-12-31T18:09:08.380Z,3.67
2022-12-31T18:11:36.393Z,3.45
2022-12-31T18:14:03.766Z,4.57
2022-12-31T18:16:30.419Z,8.90
2022-12-31T18:18:59.227Z,10.65
2022-12-31T18:21:32.834Z,6.45
2022-12-31T18:26:26.774Z,3.63
2022-12-31T18:28:53.614Z,3.97
2022-12-31T18:31:23.227Z,4.22
2022-12-31T18:33:51.320Z,3.92
2022-12-31T18:36:19.529Z,4.68
2022-12-31T18:38:46.214Z,3.30
2022-12-31T18:41:23.421Z,4.63
2022-12-31T18:43:50.758Z,4.20
2022-12-31T18:46:19.973Z,3.75
2022-12-31T18:48:46.832Z,3.45
2022-12-31T18:51:18.692Z,3.95
2022-12-31T18:53:45.575Z,4.10
2022-12-31T18:56:14.324Z,4.43
2022-12-31T18:58:41.593Z,3.45
2022-12-31T19:01:35.302Z,3.92
2022-12-31T19:04:04.555Z,3.75
2022-12-31T19:06:31.072Z,3.88
2022-12-31T19:08:59.169Z,3.90
2022-12-31T19:11:27.334Z,4.43
2022-12-31T19:13:53.660Z,4.93
2022-12-31T19:16:20.510Z,5.60
2022-12-31T19:18:47.511Z,5.47
2022-12-31T19:21:18.974Z,5.82
2022-12-31T19:23:46.136Z,5.88
2022-12-31T19:26:15.732Z,7.22
2022-12-31T19:28:42.952Z,7.47
2022-12-31T19:31:09.670Z,6.15
2022-12-31T19:33:36.436Z,6.38
2022-12-31T19:36:03.146Z,6.68
2022-12-31T19:38:31.980Z,5.88
2022-12-31T19:40:59.455Z,6.45
2022-12-31T19:43:25.891Z,5.18
2022-12-31T19:45:53.146Z,5.50
2022-12-31T19:48:25.800Z,5.20
2022-12-31T19:50:56.757Z,5.78
2022-12-31T19:53:26.329Z,5.38
2022-12-31T19:55:53.556Z,5.38
2022-12-31T19:58:22.393Z,5.55
2022-12-31T20:00:54.804Z,5.78
2022-12-31T20:03:23.637Z,5.53
2022-12-31T20:05:50.679Z,5.22
2022-12-31T20:08:20.125Z,5.70
2022-12-31T20:10:46.519Z,6.03
2022-12-31T20:13:13.398Z,5.90
2022-12-31T20:15:40.311Z,6.22
2022-12-31T20:18:06.644Z,6.53
2022-12-31T20:20:33.432Z,6.65
2022-12-31T20:22:59.860Z,7.22
2022-12-31T20:25:26.286Z,6.80
2022-12-31T20:27:54.627Z,6.68
2022-12-31T20:30:22.835Z,7.10
2022-12-31T20:32:51.977Z,6.22
2022-12-31T20:35:19.392Z,6.38
2022-12-31T20:37:46.032Z,6.15
2022-12-31T20:40:12.861Z,6.45
2022-12-31T20:42:40.865Z,7.55
2022-12-31T20:45:09.175Z,6.65
2022-12-31T20:47:35.812Z,7.28
2022-12-31T20:50:17.801Z,7.68
2022-12-31T20:52:44.856Z,11.80
2022-12-31T20:55:13.750Z,9.60
2022-12-31T20:57:40.723Z,10.20
2022-12-31T21:00:08.359Z,8.35
2022-12-31T21:02:42.275Z,7.95
2022-12-31T21:05:10.152Z,6.28
2022-12-31T21:07:36.588Z,7.43
2022-12-31T21:10:03.327Z,7.90
2022-12-31T21:12:55.886Z,8.05
2022-12-31T21:15:22.276Z,7.88
2022-12-31T21:17:48.630Z,6.80
2022-12-31T21:20:15.419Z,7.90
2022-12-31T21:22:41.802Z,7.88
2022-12-31T21:25:10.113Z,8.13
2022-12-31T21:27:36.488Z,8.20
2022-12-31T21:30:19.807Z,9.27
2022-12-31T21:32:47.012Z,7.78
2022-12-31T21:38:05.076Z,9.27
2022-12-31T21:40:32.034Z,7.50
2022-12-31T21:42:59.625Z,7.75
2022-12-31T21:45:26.499Z,7.50
2022-12-31T21:48:11.180Z,7.00
2022-12-31T21:50:37.994Z,7.20
2022-12-31T21:53:04.362Z,6.90
2022-12-31T21:55:49.712Z,7.10
2022-12-31T21:58:31.982Z,7.68
2022-12-31T22:01:18.592Z,7.65
2022-12-31T22:03:45.338Z,8.70
2022-12-31T22:06:22.302Z,9.52
2022-12-31T22:08:55.009Z,9.98
2022-12-31T22:11:24.230Z,10.25
2022-12-31T22:13:51.417Z,9.45
2022-12-31T22:16:20.304Z,10.55
2022-12-31T22:18:47.997Z,9.45
2022-12-31T22:21:21.277Z,9.93
2022-12-31T22:23:50.163Z,9.27
2022-12-31T22:26:18.923Z,9.13
2022-12-31T22:28:46.499Z,10.40
2022-12-31T22:31:15.492Z,9.13
2022-12-31T22:33:42.394Z,7.72
2022-12-31T22:36:12.928Z,10.18
2022-12-31T22:38:39.299Z,10.85
2022-12-31T22:41:06.925Z,11.13
2022-12-31T22:43:36.197Z,9.55
2022-12-31T22:46:26.268Z,9.98
2022-12-31T22:48:56.892Z,8.95
2022-12-31T22:51:23.236Z,9.10
2022-12-31T22:53:49.568Z,9.00
2022-12-31T22:56:19.060Z,8.98
2022-12-31T22:58:46.077Z,9.35
2022-12-31T23:01:19.820Z,9.07
2022-12-31T23:03:47.276Z,9.45
2022-12-31T23:06:14.049Z,9.57
2022-12-31T23:08:41.085Z,9.88
2022-12-31T23:11:09.551Z,15.32
2022-12-31T23:13:59.143Z,14.07
2022-12-31T23:16:45.935Z,15.90
2022-12-31T23:19:31.609Z,15.85
2022-12-31T23:22:16.737Z,15.07
2022-12-31T23:24:43.661Z,47.03
2022-12-31T23:27:11.203Z,20.75
2022-12-31T23:29:46.685Z,16.05
2022-12-31T23:32:18.424Z,19.15
2022-12-31T23:34:46.980Z,22.13
2022-12-31T23:37:15.038Z,15.15
2022-12-31T23:39:42.525Z,9.90
2022-12-31T23:42:08.900Z,9.75
2022-12-31T23:44:35.264Z,9.32
2022-12-31T23:47:01.970Z,8.45
2022-12-31T23:49:28.304Z,10.45
2022-12-31T23:51:54.652Z,10.43
2022-12-31T23:54:21.405Z,10.25
2022-12-31T23:56:47.760Z,11.98
2022-12-31T23:59:14.082Z,13.98
